sensor_id;sensor_type;location;lat;lon;timestamp;pressure;altitude;pressure_sealevel;temperature;humidity
10093;BME280;5085;48.092;11.484;2023-03-03T00:01:27;95189.97;;;-0.30;100.00
10093;BME280;5085;48.092;11.484;2023-03-03T00:03:53;95191.00;;;-0.31;100.00
10093;BME280;5085;48.092;11.484;2023-03-03T00:06:20;95184.31;;;-0.34;100.00
10093;BME280;5085;48.092;11.484;2023-03-03T00:08:46;95187.94;;;-0.35;100.00
10093;BME280;5085;48.092;11.484;2023-03-03T00:11:12;95193.47;;;-0.36;100.00
10093;BME280;5085;48.092;11.484;2023-03-03T00:13:50;95182.06;;;-0.37;100.00
10093;BME280;5085;48.092;11.484;2023-03-03T00:16:28;95182.25;;;-0.38;100.00
10093;BME280;5085;48.092;11.484;2023-03-03T00:18:55;95188.78;;;-0.41;100.00
10093;BME280;5085;48.092;11.484;2023-03-03T00:21:30;95185.34;;;-0.41;100.00
10093;BME280;5085;48.092;11.484;2023-03-03T00:24:14;95187.34;;;-0.43;100.00
10093;BME280;5085;48.092;11.484;2023-03-03T00:27:16;95187.78;;;-0.46;100.00
10093;BME280;5085;48.092;11.484;2023-03-03T00:29:49;95183.69;;;-0.49;100.00
10093;BME280;5085;48.092;11.484;2023-03-03T00:32:36;95182.47;;;-0.53;100.00
10093;BME280;5085;48.092;11.484;2023-03-03T00:35:23;95173.13;;;-0.56;100.00
10093;BME280;5085;48.092;11.484;2023-03-03T00:37:56;95182.47;;;-0.53;100.00
10093;BME280;5085;48.092;11.484;2023-03-03T00:40:24;95178.22;;;-0.54;100.00
10093;BME280;5085;48.092;11.484;2023-03-03T00:42:55;95181.03;;;-0.56;100.00
10093;BME280;5085;48.092;11.484;2023-03-03T00:45:24;95181.88;;;-0.55;100.00
10093;BME280;5085;48.092;11.484;2023-03-03T00:47:51;95179.66;;;-0.58;100.00
10093;BME280;5085;48.092;11.484;2023-03-03T00:50:33;95184.53;;;-0.62;100.00
10093;BME280;5085;48.092;11.484;2023-03-03T00:53:10;95196.53;;;-0.66;100.00
10093;BME280;5085;48.092;11.484;2023-03-03T00:55:36;95190.63;;;-0.68;100.00
10093;BME280;5085;48.092;11.484;2023-03-03T00:58:03;95190.41;;;-0.73;100.00
10093;BME280;5085;48.092;11.484;2023-03-03T01:00:34;95197.09;;;-0.77;100.00
10093;BME280;5085;48.092;11.484;2023-03-03T01:03:04;95202.81;;;-0.80;100.00
10093;BME280;5085;48.092;11.484;2023-03-03T01:05:31;95197.94;;;-0.83;100.00
10093;BME280;5085;48.092;11.484;2023-03-03T01:07:57;95195.28;;;-0.90;100.00
10093;BME280;5085;48.092;11.484;2023-03-03T01:10:24;95191.22;;;-0.92;100.00
10093;BME280;5085;48.092;11.484;2023-03-03T01:12:51;95196.09;;;-0.96;100.00
10093;BME280;5085;48.092;11.484;2023-03-03T01:15:17;95206.25;;;-0.99;100.00
10093;BME280;5085;48.092;11.484;2023-03-03T01:17:43;95200.34;;;-1.02;100.00
10093;BME280;5085;48.092;11.484;2023-03-03T01:20:11;95200.53;;;-1.03;100.00
10093;BME280;5085;48.092;11.484;2023-03-03T01:22:38;95194.66;;;-1.05;100.00
10093;BME280;5085;48.092;11.484;2023-03-03T01:25:07;95191.38;;;-1.07;100.00
10093;BME280;5085;48.092;11.484;2023-03-03T01:27:34;95188.97;;;-1.09;100.00
10093;BME280;5085;48.092;11.484;2023-03-03T01:30:01;95179.19;;;-1.08;100.00
10093;BME280;5085;48.092;11.484;2023-03-03T01:32:27;95182.88;;;-1.09;100.00
10093;BME280;5085;48.092;11.484;2023-03-03T01:34:53;95187.72;;;-1.13;100.00
10093;BME280;5085;48.092;11.484;2023-03-03T01:37:20;95184.06;;;-1.12;100.00
10093;BME280;5085;48.092;11.484;2023-03-03T01:39:50;95182.44;;;-1.13;100.00
10093;BME280;5085;48.092;11.484;2023-03-03T01:42:16;95186.91;;;-1.13;100.00
10093;BME280;5085;48.092;11.484;2023-03-03T01:44:42;95182.44;;;-1.13;100.00
10093;BME280;5085;48.092;11.484;2023-03-03T01:47:19;95177.56;;;-1.16;100.00
10093;BME280;5085;48.092;11.484;2023-03-03T01:50:03;95173.69;;;-1.20;100.00
10093;BME280;5085;48.092;11.484;2023-03-03T01:52:35;95169.22;;;-1.19;100.00
10093;BME280;5085;48.092;11.484;2023-03-03T01:55:19;95171.66;;;-1.24;100.00
10093;BME280;5085;48.092;11.484;2023-03-03T01:57:51;95178.16;;;-1.27;100.00
10093;BME280;5085;48.092;11.484;2023-03-03T02:00:20;95172.66;;;-1.26;100.00
10093;BME280;5085;48.092;11.484;2023-03-03T02:02:46;95165.56;;;-1.25;100.00
10093;BME280;5085;48.092;11.484;2023-03-03T02:05:12;95167.16;;;-1.24;100.00
10093;BME280;5085;48.092;11.484;2023-03-03T02:07:39;95161.28;;;-1.26;100.00
10093;BME280;5085;48.092;11.484;2023-03-03T02:10:15;95163.50;;;-1.30;100.00
10093;BME280;5085;48.092;11.484;2023-03-03T02:12:56;95165.34;;;-1.30;100.00
10093;BME280;5085;48.092;11.484;2023-03-03T02:15:25;95164.53;;;-1.31;100.00
10093;BME280;5085;48.092;11.484;2023-03-03T02:18:08;95169.00;;;-1.31;100.00
10093;BME280;5085;48.092;11.484;2023-03-03T02:20:43;95162.28;;;-1.34;100.00
10093;BME280;5085;48.092;11.484;2023-03-03T02:26:15;95169.19;;;-1.39;100.00
10093;BME280;5085;48.092;11.484;2023-03-03T02:28:42;95156.78;;;-1.39;100.00
10093;BME280;5085;48.092;11.484;2023-03-03T02:31:14;95160.25;;;-1.38;100.00
10093;BME280;5085;48.092;11.484;2023-03-03T02:33:44;95164.72;;;-1.39;100.00
10093;BME280;5085;48.092;11.484;2023-03-03T02:36:13;95163.69;;;-1.38;100.00
10093;BME280;5085;48.092;11.484;2023-03-03T02:42:04;95170.59;;;-1.37;100.00
10093;BME280;5085;48.092;11.484;2023-03-03T02:44:41;95173.44;;;-1.38;100.00
10093;BME280;5085;48.092;11.484;2023-03-03T02:47:08;95174.25;;;-1.38;100.00
10093;BME280;5085;48.092;11.484;2023-03-03T02:49:36;95169.78;;;-1.37;100.00
10093;BME280;5085;48.092;11.484;2023-03-03T02:52:05;95173.06;;;-1.35;100.00
10093;BME280;5085;48.092;11.484;2023-03-03T02:54:32;95168.16;;;-1.38;100.00
10093;BME280;5085;48.092;11.484;2023-03-03T02:57:01;95166.53;;;-1.39;100.00
10093;BME280;5085;48.092;11.484;2023-03-03T02:59:27;95166.94;;;-1.42;100.00
10093;BME280;5085;48.092;11.484;2023-03-03T03:01:56;95171.63;;;-1.44;100.00
10093;BME280;5085;48.092;11.484;2023-03-03T03:04:26;95167.31;;;-1.45;100.00
10093;BME280;5085;48.092;11.484;2023-03-03T03:06:53;95163.06;;;-1.46;100.00
10093;BME280;5085;48.092;11.484;2023-03-03T03:09:21;95164.69;;;-1.45;100.00
10093;BME280;5085;48.092;11.484;2023-03-03T03:11:50;95160.84;;;-1.43;100.00
10093;BME280;5085;48.092;11.484;2023-03-03T03:14:20;95160.84;;;-1.36;100.00
10093;BME280;5085;48.092;11.484;2023-03-03T03:16:46;95160.88;;;-1.30;100.00
10093;BME280;5085;48.092;11.484;2023-03-03T03:19:12;95164.13;;;-1.21;100.00
10093;BME280;5085;48.092;11.484;2023-03-03T03:21:39;95161.72;;;-1.09;100.00
10093;BME280;5085;48.092;11.484;2023-03-03T03:24:07;95157.47;;;-0.97;100.00
10093;BME280;5085;48.092;11.484;2023-03-03T03:26:35;95155.22;;;-0.87;100.00
10093;BME280;5085;48.092;11.484;2023-03-03T03:29:01;95158.91;;;-0.74;100.00
10093;BME280;5085;48.092;11.484;2023-03-03T03:31:27;95167.84;;;-0.62;100.00
10093;BME280;5085;48.092;11.484;2023-03-03T03:33:53;95165.41;;;-0.51;100.00
10093;BME280;5085;48.092;11.484;2023-03-03T03:36:21;95179.22;;;-0.42;100.00
10093;BME280;5085;48.092;11.484;2023-03-03T03:38:47;95172.88;;;-0.34;100.00
10093;BME280;5085;48.092;11.484;2023-03-03T03:41:14;95174.72;;;-0.28;100.00
10093;BME280;5085;48.092;11.484;2023-03-03T03:43:40;95184.47;;;-0.22;100.00
10093;BME280;5085;48.092;11.484;2023-03-03T03:46:06;95173.09;;;-0.16;100.00
10093;BME280;5085;48.092;11.484;2023-03-03T03:48:33;95176.72;;;-0.10;100.00
10093;BME280;5085;48.092;11.484;2023-03-03T03:51:01;95179.38;;;-0.04;100.00
10093;BME280;5085;48.092;11.484;2023-03-03T03:53:27;95173.44;;;0.01;100.00
10093;BME280;5085;48.092;11.484;2023-03-03T03:55:54;95177.91;;;0.07;100.00
10093;BME280;5085;48.092;11.484;2023-03-03T03:58:20;95165.69;;;0.13;100.00
10093;BME280;5085;48.092;11.484;2023-03-03T04:01:04;95177.47;;;0.17;100.00
10093;BME280;5085;48.092;11.484;2023-03-03T04:03:32;95171.56;;;0.21;100.00
10093;BME280;5085;48.092;11.484;2023-03-03T04:05:58;95173.38;;;0.28;100.00
10093;BME280;5085;48.092;11.484;2023-03-03T04:08:24;95171.69;;;0.33;100.00
10093;BME280;5085;48.092;11.484;2023-03-03T04:10:50;95167.84;;;0.36;100.00
10093;BME280;5085;48.092;11.484;2023-03-03T04:13:17;95168.00;;;0.41;100.00
10093;BME280;5085;48.092;11.484;2023-03-03T04:15:43;95164.16;;;0.43;100.00
10093;BME280;5085;48.092;11.484;2023-03-03T04:18:10;95166.75;;;0.50;100.00
10093;BME280;5085;48.092;11.484;2023-03-03T04:20:38;95173.25;;;0.54;100.00
10093;BME280;5085;48.092;11.484;2023-03-03T04:23:04;95176.28;;;0.58;100.00
10093;BME280;5085;48.092;11.484;2023-03-03T04:25:31;95173.22;;;0.61;100.00
10093;BME280;5085;48.092;11.484;2023-03-03T04:27:57;95168.75;;;0.61;100.00
10093;BME280;5085;48.092;11.484;2023-03-03T04:30:24;95183.19;;;0.65;100.00
10093;BME280;5085;48.092;11.484;2023-03-03T04:32:54;95176.84;;;0.66;100.00
10093;BME280;5085;48.092;11.484;2023-03-03T04:35:22;95180.94;;;0.69;100.00
10093;BME280;5085;48.092;11.484;2023-03-03T04:37:48;95184.97;;;0.71;100.00
10093;BME280;5085;48.092;11.484;2023-03-03T04:40:15;95183.75;;;0.74;100.00
10093;BME280;5085;48.092;11.484;2023-03-03T04:42:42;95187.84;;;0.77;100.00
10093;BME280;5085;48.092;11.484;2023-03-03T04:45:09;95186.56;;;0.79;100.00
10093;BME280;5085;48.092;11.484;2023-03-03T04:47:38;95177.41;;;0.82;100.00
10093;BME280;5085;48.092;11.484;2023-03-03T04:50:11;95178.78;;;0.84;100.00
10093;BME280;5085;48.092;11.484;2023-03-03T04:52:37;95166.16;;;0.86;100.00
10093;BME280;5085;48.092;11.484;2023-03-03T04:55:04;95176.34;;;0.89;100.00
10093;BME280;5085;48.092;11.484;2023-03-03T04:57:31;95177.75;;;0.92;100.00
10093;BME280;5085;48.092;11.484;2023-03-03T04:59:57;95166.91;;;0.93;100.00
10093;BME280;5085;48.092;11.484;2023-03-03T05:02:23;95176.28;;;0.96;100.00
10093;BME280;5085;48.092;11.484;2023-03-03T05:04:49;95179.56;;;0.98;100.00
10093;BME280;5085;48.092;11.484;2023-03-03T05:07:15;95177.47;;;1.00;100.00
10093;BME280;5085;48.092;11.484;2023-03-03T05:09:43;95170.56;;;0.99;100.00
10093;BME280;5085;48.092;11.484;2023-03-03T05:12:09;95182.56;;;1.02;100.00
10093;BME280;5085;48.092;11.484;2023-03-03T05:14:35;95176.25;;;1.03;100.00
10093;BME280;5085;48.092;11.484;2023-03-03T05:17:03;95176.84;;;1.05;100.00
10093;BME280;5085;48.092;11.484;2023-03-03T05:19:29;95173.97;;;1.06;100.00
10093;BME280;5085;48.092;11.484;2023-03-03T05:21:55;95180.09;;;1.07;100.00
10093;BME280;5085;48.092;11.484;2023-03-03T05:24:22;95175.38;;;1.09;100.00
10093;BME280;5085;48.092;11.484;2023-03-03T05:26:48;95178.66;;;1.11;100.00
10093;BME280;5085;48.092;11.484;2023-03-03T05:29:14;95176.00;;;1.11;100.00
10093;BME280;5085;48.092;11.484;2023-03-03T05:31:40;95174.16;;;1.11;100.00
10093;BME280;5085;48.092;11.484;2023-03-03T05:34:06;95176.59;;;1.13;100.00
10093;BME280;5085;48.092;11.484;2023-03-03T05:36:32;95183.50;;;1.14;100.00
10093;BME280;5085;48.092;11.484;2023-03-03T05:38:58;95190.47;;;1.15;100.00
10093;BME280;5085;48.092;11.484;2023-03-03T05:41:24;95196.34;;;1.17;100.00
10093;BME280;5085;48.092;11.484;2023-03-03T05:43:50;95196.94;;;1.19;100.00
10093;BME280;5085;48.092;11.484;2023-03-03T05:46:17;95196.72;;;1.20;100.00
10093;BME280;5085;48.092;11.484;2023-03-03T05:48:43;95195.69;;;1.21;100.00
10093;BME280;5085;48.092;11.484;2023-03-03T05:51:10;95202.63;;;1.22;100.00
10093;BME280;5085;48.092;11.484;2023-03-03T05:53:36;95198.75;;;1.25;100.00
10093;BME280;5085;48.092;11.484;2023-03-03T05:56:02;95206.47;;;1.27;100.00
10093;BME280;5085;48.092;11.484;2023-03-03T05:58:28;95210.78;;;1.28;100.00
10093;BME280;5085;48.092;11.484;2023-03-03T06:00:55;95212.16;;;1.30;100.00
10093;BME280;5085;48.092;11.484;2023-03-03T06:03:21;95214.41;;;1.33;100.00
10093;BME280;5085;48.092;11.484;2023-03-03T06:05:47;95213.13;;;1.36;100.00
10093;BME280;5085;48.092;11.484;2023-03-03T06:08:13;95214.34;;;1.40;100.00
10093;BME280;5085;48.092;11.484;2023-03-03T06:10:39;95214.94;;;1.42;100.00
10093;BME280;5085;48.092;11.484;2023-03-03T06:13:08;95212.06;;;1.43;100.00
10093;BME280;5085;48.092;11.484;2023-03-03T06:15:34;95224.09;;;1.46;100.00
10093;BME280;5085;48.092;11.484;2023-03-03T06:18:00;95231.84;;;1.47;100.00
10093;BME280;5085;48.092;11.484;2023-03-03T06:20:26;95223.44;;;1.50;100.00
10093;BME280;5085;48.092;11.484;2023-03-03T06:22:52;95226.69;;;1.53;100.00
10093;BME280;5085;48.092;11.484;2023-03-03T06:25:18;95227.31;;;1.55;100.00
10093;BME280;5085;48.092;11.484;2023-03-03T06:27:44;95230.34;;;1.58;100.00
10093;BME280;5085;48.092;11.484;2023-03-03T06:30:11;95232.19;;;1.58;100.00
10093;BME280;5085;48.092;11.484;2023-03-03T06:32:37;95233.81;;;1.59;100.00
10093;BME280;5085;48.092;11.484;2023-03-03T06:35:04;95240.31;;;1.63;100.00
10093;BME280;5085;48.092;11.484;2023-03-03T06:37:30;95245.63;;;1.63;100.00
10093;BME280;5085;48.092;11.484;2023-03-03T06:39:56;95246.81;;;1.67;100.00
10093;BME280;5085;48.092;11.484;2023-03-03T06:42:22;95237.00;;;1.67;100.00
10093;BME280;5085;48.092;11.484;2023-03-03T06:44:49;95237.59;;;1.69;100.00
10093;BME280;5085;48.092;11.484;2023-03-03T06:47:15;95243.50;;;1.71;100.00
10093;BME280;5085;48.092;11.484;2023-03-03T06:49:42;95240.41;;;1.74;100.00
10093;BME280;5085;48.092;11.484;2023-03-03T06:52:19;95243.06;;;1.74;100.00
10093;BME280;5085;48.092;11.484;2023-03-03T06:54:48;95246.53;;;1.75;100.00
10093;BME280;5085;48.092;11.484;2023-03-03T06:57:33;95250.81;;;1.76;100.00
10093;BME280;5085;48.092;11.484;2023-03-03T07:00:23;95243.44;;;1.78;100.00
10093;BME280;5085;48.092;11.484;2023-03-03T07:03:07;95252.81;;;1.81;100.00
10093;BME280;5085;48.092;11.484;2023-03-03T07:05:37;95250.16;;;1.81;100.00
10093;BME280;5085;48.092;11.484;2023-03-03T07:08:08;95255.47;;;1.81;100.00
10093;BME280;5085;48.092;11.484;2023-03-03T07:10:35;95259.53;;;1.83;100.00
10093;BME280;5085;48.092;11.484;2023-03-03T07:15:41;95262.13;;;1.90;100.00
10093;BME280;5085;48.092;11.484;2023-03-03T07:18:22;95256.41;;;1.93;100.00
10093;BME280;5085;48.092;11.484;2023-03-03T07:20:49;95264.75;;;1.96;100.00
10093;BME280;5085;48.092;11.484;2023-03-03T07:23:24;95266.13;;;1.99;100.00
10093;BME280;5085;48.092;11.484;2023-03-03T07:25:51;95275.13;;;1.98;100.00
10093;BME280;5085;48.092;11.484;2023-03-03T07:28:28;95276.31;;;2.02;100.00
10093;BME280;5085;48.092;11.484;2023-03-03T07:30:57;95281.41;;;2.04;100.00
10093;BME280;5085;48.092;11.484;2023-03-03T07:33:30;95283.63;;;2.07;100.00
10093;BME280;5085;48.092;11.484;2023-03-03T07:36:01;95281.13;;;2.12;100.00
10093;BME280;5085;48.092;11.484;2023-03-03T07:38:34;95286.03;;;2.15;100.00
10093;BME280;5085;48.092;11.484;2023-03-03T07:41:05;95285.59;;;2.18;100.00
10093;BME280;5085;48.092;11.484;2023-03-03T07:43:37;95293.94;;;2.21;100.00
10093;BME280;5085;48.092;11.484;2023-03-03T07:46:39;95291.88;;;2.23;100.00
10093;BME280;5085;48.092;11.484;2023-03-03T07:49:32;95292.25;;;2.27;100.00
10093;BME280;5085;48.092;11.484;2023-03-03T07:52:00;95296.53;;;2.28;100.00
10093;BME280;5085;48.092;11.484;2023-03-03T07:54:39;95298.97;;;2.30;100.00
10093;BME280;5085;48.092;11.484;2023-03-03T07:59:47;95299.72;;;2.37;100.00
10093;BME280;5085;48.092;11.484;2023-03-03T08:04:49;95301.72;;;2.41;100.00
10093;BME280;5085;48.092;11.484;2023-03-03T08:07:18;95309.84;;;2.46;100.00
10093;BME280;5085;48.092;11.484;2023-03-03T08:09:57;95310.44;;;2.48;100.00
10093;BME280;5085;48.092;11.484;2023-03-03T08:12:37;95303.66;;;2.53;100.00
10093;BME280;5085;48.092;11.484;2023-03-03T08:15:20;95311.78;;;2.58;100.00
10093;BME280;5085;48.092;11.484;2023-03-03T08:17:48;95319.69;;;2.64;100.00
10093;BME280;5085;48.092;11.484;2023-03-03T08:20:43;95320.66;;;2.70;100.00
10093;BME280;5085;48.092;11.484;2023-03-03T08:23:10;95315.47;;;2.75;100.00
10093;BME280;5085;48.092;11.484;2023-03-03T08:25:40;95309.50;;;2.80;100.00
10093;BME280;5085;48.092;11.484;2023-03-03T08:28:07;95302.25;;;2.87;100.00
10093;BME280;5085;48.092;11.484;2023-03-03T08:30:34;95304.84;;;2.93;100.00
10093;BME280;5085;48.092;11.484;2023-03-03T08:33:00;95306.19;;;3.03;100.00
10093;BME280;5085;48.092;11.484;2023-03-03T08:35:26;95298.47;;;3.13;100.00
10093;BME280;5085;48.092;11.484;2023-03-03T08:37:52;95300.97;;;3.26;100.00
10093;BME280;5085;48.092;11.484;2023-03-03T08:40:18;95309.13;;;3.43;100.00
10093;BME280;5085;48.092;11.484;2023-03-03T08:42:44;95302.38;;;3.59;100.00
10093;BME280;5085;48.092;11.484;2023-03-03T08:45:10;95310.28;;;3.77;100.00
10093;BME280;5085;48.092;11.484;2023-03-03T08:47:37;95309.19;;;3.96;100.00
10093;BME280;5085;48.092;11.484;2023-03-03T08:50:06;95312.69;;;4.09;100.00
10093;BME280;5085;48.092;11.484;2023-03-03T08:52:32;95312.69;;;4.20;100.00
10093;BME280;5085;48.092;11.484;2023-03-03T08:54:59;95322.69;;;4.37;100.00
10093;BME280;5085;48.092;11.484;2023-03-03T08:57:25;95325.25;;;4.55;100.00
10093;BME280;5085;48.092;11.484;2023-03-03T08:59:51;95337.66;;;4.73;100.00
10093;BME280;5085;48.092;11.484;2023-03-03T09:02:17;95341.69;;;4.87;100.00
10093;BME280;5085;48.092;11.484;2023-03-03T09:04:43;95346.69;;;4.95;100.00
10093;BME280;5085;48.092;11.484;2023-03-03T09:07:09;95343.44;;;4.93;100.00
10093;BME280;5085;48.092;11.484;2023-03-03T09:09:36;95342.97;;;4.96;100.00
10093;BME280;5085;48.092;11.484;2023-03-03T09:15:27;95330.16;;;5.22;100.00
10093;BME280;5085;48.092;11.484;2023-03-03T09:18:09;95340.00;;;5.33;100.00
10093;BME280;5085;48.092;11.484;2023-03-03T09:23:38;95334.38;;;5.46;100.00
10093;BME280;5085;48.092;11.484;2023-03-03T09:28:36;95339.50;;;5.48;100.00
10093;BME280;5085;48.092;11.484;2023-03-03T09:31:03;95337.16;;;5.51;100.00
10093;BME280;5085;48.092;11.484;2023-03-03T09:33:41;95341.19;;;5.66;100.00
10093;BME280;5085;48.092;11.484;2023-03-03T09:36:20;95339.28;;;5.78;100.00
10093;BME280;5085;48.092;11.484;2023-03-03T09:38:48;95346.06;;;5.97;100.00
10093;BME280;5085;48.092;11.484;2023-03-03T09:41:48;95352.16;;;6.26;100.00
10093;BME280;5085;48.092;11.484;2023-03-03T09:47:32;95362.09;;;6.60;100.00
10093;BME280;5085;48.092;11.484;2023-03-03T09:50:12;95352.50;;;6.64;100.00
10093;BME280;5085;48.092;11.484;2023-03-03T10:00:38;95367.59;;;7.09;97.50
10093;BME280;5085;48.092;11.484;2023-03-03T10:06:21;95372.06;;;7.20;95.33
10093;BME280;5085;48.092;11.484;2023-03-03T10:11:59;95375.53;;;7.20;97.06
10093;BME280;5085;48.092;11.484;2023-03-03T10:14:56;95372.69;;;7.27;95.27
10093;BME280;5085;48.092;11.484;2023-03-03T10:25:28;95377.91;;;7.39;93.30
10093;BME280;5085;48.092;11.484;2023-03-03T10:36:52;95383.09;;;7.45;93.09
10093;BME280;5085;48.092;11.484;2023-03-03T10:39:47;95390.88;;;7.47;93.17
10093;BME280;5085;48.092;11.484;2023-03-03T10:42:22;95388.53;;;7.50;91.96
10093;BME280;5085;48.092;11.484;2023-03-03T10:50:57;95378.19;;;7.59;92.88
10093;BME280;5085;48.092;11.484;2023-03-03T10:53:44;95377.44;;;7.64;91.19
10093;BME280;5085;48.092;11.484;2023-03-03T10:56:24;95374.38;;;7.77;90.26
10093;BME280;5085;48.092;11.484;2023-03-03T11:02:09;95365.88;;;8.07;88.16
10093;BME280;5085;48.092;11.484;2023-03-03T11:09:59;95375.59;;;8.40;85.66
10093;BME280;5085;48.092;11.484;2023-03-03T11:12:45;95375.09;;;8.43;86.21
10093;BME280;5085;48.092;11.484;2023-03-03T11:26:23;95390.50;;;8.31;82.34
10093;BME280;5085;48.092;11.484;2023-03-03T11:29:11;95392.69;;;8.34;82.82
10093;BME280;5085;48.092;11.484;2023-03-03T11:31:48;95394.38;;;8.40;83.18
10093;BME280;5085;48.092;11.484;2023-03-03T11:34:27;95386.78;;;8.59;87.49
10093;BME280;5085;48.092;11.484;2023-03-03T11:37:01;95388.56;;;8.81;81.69
10093;BME280;5085;48.092;11.484;2023-03-03T11:39:28;95385.09;;;8.85;79.15
10093;BME280;5085;48.092;11.484;2023-03-03T11:42:33;95381.28;;;8.76;78.65
10093;BME280;5085;48.092;11.484;2023-03-03T11:45:13;95389.06;;;8.77;79.50
10093;BME280;5085;48.092;11.484;2023-03-03T11:47:42;95383.69;;;8.77;79.51
10093;BME280;5085;48.092;11.484;2023-03-03T11:50:20;95379.72;;;8.85;81.11
10093;BME280;5085;48.092;11.484;2023-03-03T11:53:23;95368.81;;;8.97;79.27
10093;BME280;5085;48.092;11.484;2023-03-03T11:55:57;95368.69;;;9.19;76.85
10093;BME280;5085;48.092;11.484;2023-03-03T12:01:45;95357.09;;;9.76;74.31
10093;BME280;5085;48.092;11.484;2023-03-03T12:04:19;95351.00;;;10.06;71.27
10093;BME280;5085;48.092;11.484;2023-03-03T12:07:41;95360.25;;;10.25;68.15
10093;BME280;5085;48.092;11.484;2023-03-03T12:10:56;95354.06;;;10.35;67.19
10093;BME280;5085;48.092;11.484;2023-03-03T12:16:06;95351.91;;;10.47;66.81
10093;BME280;5085;48.092;11.484;2023-03-03T12:18:46;95352.97;;;10.36;65.70
10093;BME280;5085;48.092;11.484;2023-03-03T12:21:43;95356.75;;;10.35;66.32
10093;BME280;5085;48.092;11.484;2023-03-03T12:32:15;95331.97;;;10.99;63.74
10093;BME280;5085;48.092;11.484;2023-03-03T12:35:34;95336.53;;;11.14;62.67
10093;BME280;5085;48.092;11.484;2023-03-03T12:37:53;95336.50;;;11.19;64.01
10093;BME280;5085;48.092;11.484;2023-03-03T12:40:31;95338.66;;;11.12;62.72
10093;BME280;5085;48.092;11.484;2023-03-03T12:43:15;95342.19;;;11.02;62.98
10093;BME280;5085;48.092;11.484;2023-03-03T12:48:54;95338.19;;;10.69;62.95
10093;BME280;5085;48.092;11.484;2023-03-03T13:02:57;95336.22;;;9.98;68.53
10093;BME280;5085;48.092;11.484;2023-03-03T13:08:12;95333.25;;;9.95;70.50
10093;BME280;5085;48.092;11.484;2023-03-03T13:13:23;95337.03;;;10.09;69.86
10093;BME280;5085;48.092;11.484;2023-03-03T13:16:13;95340.53;;;10.15;69.32
10093;BME280;5085;48.092;11.484;2023-03-03T13:19:03;95342.75;;;10.33;69.89
10093;BME280;5085;48.092;11.484;2023-03-03T13:21:49;95336.84;;;10.46;66.95
10093;BME280;5085;48.092;11.484;2023-03-03T13:24:23;95331.44;;;10.57;66.38
10093;BME280;5085;48.092;11.484;2023-03-03T13:27:06;95335.50;;;10.64;65.51
10093;BME280;5085;48.092;11.484;2023-03-03T13:29:36;95343.84;;;10.63;64.39
10093;BME280;5085;48.092;11.484;2023-03-03T13:32:14;95337.09;;;10.65;64.50
10093;BME280;5085;48.092;11.484;2023-03-03T13:35:01;95323.94;;;10.59;64.41
10093;BME280;5085;48.092;11.484;2023-03-03T13:37:37;95322.31;;;10.58;65.59
10093;BME280;5085;48.092;11.484;2023-03-03T13:42:39;95330.09;;;10.69;64.72
10093;BME280;5085;48.092;11.484;2023-03-03T13:50:56;95329.31;;;10.84;63.01
10093;BME280;5085;48.092;11.484;2023-03-03T13:53:41;95320.13;;;10.85;62.77
10093;BME280;5085;48.092;11.484;2023-03-03T13:56:31;95320.16;;;10.65;63.16
10093;BME280;5085;48.092;11.484;2023-03-03T14:02:37;95307.25;;;11.62;61.44
10093;BME280;5085;48.092;11.484;2023-03-03T14:07:51;95302.94;;;15.40;49.44
10093;BME280;5085;48.092;11.484;2023-03-03T14:10:43;95304.00;;;16.58;45.22
10093;BME280;5085;48.092;11.484;2023-03-03T14:13:20;95299.19;;;17.31;43.82
10093;BME280;5085;48.092;11.484;2023-03-03T14:16:04;95300.13;;;17.97;42.33
10093;BME280;5085;48.092;11.484;2023-03-03T14:18:57;95293.41;;;18.29;40.72
10093;BME280;5085;48.092;11.484;2023-03-03T14:21:34;95288.59;;;18.35;40.57
10093;BME280;5085;48.092;11.484;2023-03-03T14:24:16;95285.22;;;18.12;40.75
10093;BME280;5085;48.092;11.484;2023-03-03T14:26:54;95281.06;;;18.14;40.23
10093;BME280;5085;48.092;11.484;2023-03-03T14:31:54;95283.31;;;18.30;39.64
10093;BME280;5085;48.092;11.484;2023-03-03T14:37:28;95279.78;;;17.63;40.71
10093;BME280;5085;48.092;11.484;2023-03-03T14:45:30;95280.19;;;15.08;45.02
10093;BME280;5085;48.092;11.484;2023-03-03T14:47:58;95283.13;;;14.28;46.98
10093;BME280;5085;48.092;11.484;2023-03-03T14:50:40;95279.91;;;13.45;49.02
10093;BME280;5085;48.092;11.484;2023-03-03T14:53:14;95280.25;;;12.85;50.50
10093;BME280;5085;48.092;11.484;2023-03-03T14:55:43;95280.75;;;12.24;51.67
10093;BME280;5085;48.092;11.484;2023-03-03T14:58:30;95285.84;;;11.81;53.18
10093;BME280;5085;48.092;11.484;2023-03-03T15:01:34;95280.16;;;11.23;54.89
10093;BME280;5085;48.092;11.484;2023-03-03T15:04:09;95280.50;;;10.91;56.13
10093;BME280;5085;48.092;11.484;2023-03-03T15:06:53;95278.69;;;10.71;57.48
10093;BME280;5085;48.092;11.484;2023-03-03T15:12:23;95273.84;;;10.42;60.79
10093;BME280;5085;48.092;11.484;2023-03-03T15:14:52;95280.84;;;10.38;61.26
10093;BME280;5085;48.092;11.484;2023-03-03T15:17:35;95277.88;;;10.30;62.07
10093;BME280;5085;48.092;11.484;2023-03-03T15:20:23;95280.28;;;10.16;62.81
10093;BME280;5085;48.092;11.484;2023-03-03T15:26:27;95289.38;;;9.89;64.05
10093;BME280;5085;48.092;11.484;2023-03-03T15:29:21;95292.31;;;9.83;64.16
10093;BME280;5085;48.092;11.484;2023-03-03T15:32:09;95293.06;;;9.68;66.51
10093;BME280;5085;48.092;11.484;2023-03-03T15:34:42;95291.38;;;9.41;67.95
10093;BME280;5085;48.092;11.484;2023-03-03T15:37:46;95296.97;;;9.24;69.61
10093;BME280;5085;48.092;11.484;2023-03-03T15:40:34;95296.63;;;9.11;71.54
10093;BME280;5085;48.092;11.484;2023-03-03T15:43:33;95293.34;;;8.98;72.96
10093;BME280;5085;48.092;11.484;2023-03-03T15:46:08;95293.59;;;8.97;73.02
10093;BME280;5085;48.092;11.484;2023-03-03T15:49:15;95293.59;;;8.97;73.11
10093;BME280;5085;48.092;11.484;2023-03-03T15:54:39;95295.53;;;9.07;72.74
10093;BME280;5085;48.092;11.484;2023-03-03T16:00:05;95294.72;;;9.06;71.51
10093;BME280;5085;48.092;11.484;2023-03-03T16:02:51;95298.75;;;9.09;71.70